Time,TemperatureF,DewpointF,PressureIn,WindDirection,WindDirectionDegrees,WindSpeedMPH,WindSpeedGustMPH,Humidity,HourlyPrecipIn,Conditions,Clouds,dailyrainin,SoftwareType,DateUTC
2013-07-15 00:11:00,73.0,73.0,-100.00,ENE,60,0.0,0.0,99,-99.99,,,-99.99,,2013-07-15 05:11:00,
2013-07-15 00:22:00,73.0,73.0,-100.00,ENE,60,0.0,0.0,99,-99.99,,,-99.99,,2013-07-15 05:22:00,
2013-07-15 00:43:00,72.0,72.0,-100.00,East,90,0.0,0.0,99,-99.99,,,-99.99,,2013-07-15 05:43:00,
2013-07-15 00:53:00,72.0,72.0,-100.00,East,90,0.0,0.0,99,-99.99,,,-99.99,,2013-07-15 05:53:00,
2013-07-15 01:22:00,71.0,71.0,-100.00,ENE,65,0.0,0.0,99,-99.99,,,-99.99,,2013-07-15 06:22:00,
2013-07-15 01:42:00,71.0,70.0,-100.00,East,80,0.0,0.0,99,-99.99,,,-99.99,,2013-07-15 06:42:00,
2013-07-15 01:53:00,71.0,70.0,-100.00,East,80,0.0,0.0,99,-99.99,,,-99.99,,2013-07-15 06:53:00,
2013-07-15 02:11:00,70.0,70.0,-100.00,NNE,20,0.0,0.0,99,-99.99,,,-99.99,,2013-07-15 07:11:00,
2013-07-15 02:21:00,70.0,70.0,-100.00,NNE,20,0.0,0.0,99,-99.99,,,-99.99,,2013-07-15 07:21:00,
2013-07-15 02:44:00,70.0,70.0,-100.00,ENE,65,0.0,0.0,99,-99.99,,,-99.99,,2013-07-15 07:44:00,
2013-07-15 02:53:00,70.0,70.0,-100.00,ENE,65,0.0,0.0,99,-99.99,,,-99.99,,2013-07-15 07:53:00,
2013-07-15 03:22:00,69.0,69.0,-100.00,ENE,60,0.0,0.0,99,-99.99,,,-99.99,,2013-07-15 08:22:00,
2013-07-15 03:43:00,69.0,69.0,-100.00,NE,40,0.0,0.0,99,-99.99,,,-99.99,,2013-07-15 08:43:00,
2013-07-15 03:53:00,69.0,69.0,-100.00,NE,40,0.0,0.0,99,-99.99,,,-99.99,,2013-07-15 08:53:00,
2013-07-15 04:11:00,69.0,69.0,-100.00,ENE,60,0.0,0.0,99,-99.99,,,-99.99,,2013-07-15 09:11:00,
2013-07-15 04:22:00,69.0,69.0,-100.00,ENE,60,0.0,0.0,99,-99.99,,,-99.99,,2013-07-15 09:22:00,
2013-07-15 04:43:00,69.0,68.0,-100.00,East,80,0.0,0.0,99,-99.99,,,-99.99,,2013-07-15 09:43:00,
2013-07-15 04:52:00,69.0,68.0,-100.00,East,80,0.0,0.0,99,-99.99,,,-99.99,,2013-07-15 09:52:00,
2013-07-15 05:11:00,68.0,68.0,-100.00,ESE,115,0.0,0.0,99,-99.99,,,-99.99,,2013-07-15 10:11:00,
2013-07-15 05:22:00,68.0,68.0,-100.00,ESE,115,0.0,0.0,99,-99.99,,,-99.99,,2013-07-15 10:22:00,
2013-07-15 05:43:00,69.0,68.0,-100.00,East,90,0.0,0.0,99,-99.99,,,-99.99,,2013-07-15 10:43:00,
2013-07-15 05:53:00,69.0,68.0,-100.00,East,90,0.0,0.0,99,-99.99,,,-99.99,,2013-07-15 10:53:00,
2013-07-15 06:11:00,68.0,68.0,-100.00,East,85,0.0,0.0,99,-99.99,,,-99.99,,2013-07-15 11:11:00,
2013-07-15 06:22:00,68.0,68.0,-100.00,East,85,0.0,0.0,99,-99.99,,,-99.99,,2013-07-15 11:22:00,
2013-07-15 06:32:00,69.0,69.0,-100.00,ENE,75,0.0,0.0,99,-99.99,,,-99.99,,2013-07-15 11:32:00,
2013-07-15 06:42:00,69.0,68.0,-100.00,ENE,75,0.0,0.0,99,-99.99,,,-99.99,,2013-07-15 11:42:00,
2013-07-15 06:52:00,69.0,68.0,-100.00,ENE,75,0.0,0.0,99,-99.99,,,-99.99,,2013-07-15 11:52:00,
2013-07-15 07:01:00,69.0,68.0,-100.00,ENE,75,0.0,0.0,99,-99.99,,,-99.99,,2013-07-15 12:01:00,
2013-07-15 07:11:00,71.0,70.0,-100.00,East,80,0.0,0.0,99,-99.99,,,-99.99,,2013-07-15 12:11:00,
2013-07-15 07:22:00,71.0,70.0,-100.00,East,80,0.0,0.0,99,-99.99,,,-99.99,,2013-07-15 12:22:00,
2013-07-15 07:53:00,74.0,74.0,-100.00,ESE,105,0.0,0.0,99,-99.99,,,-99.99,,2013-07-15 12:53:00,
2013-07-15 08:22:00,78.0,77.0,-100.00,East,100,0.0,0.0,96,-99.99,,,-99.99,,2013-07-15 13:22:00,
2013-07-15 09:02:00,83.0,75.0,-100.00,SE,130,0.0,0.0,76,-99.99,,,-99.99,,2013-07-15 14:02:00,
2013-07-15 09:22:00,83.0,75.0,-100.00,ESE,105,0.0,0.0,75,-99.99,,,-99.99,,2013-07-15 14:22:00,
2013-07-15 10:01:00,86.0,75.0,-100.00,ESE,115,0.0,0.0,70,-99.99,,,-99.99,,2013-07-15 15:01:00,
2013-07-15 10:27:00,87.0,74.0,-100.00,SE,135,0.0,0.0,66,-99.99,,,-99.99,,2013-07-15 15:27:00,
2013-07-15 10:53:00,87.0,74.0,-100.00,East,100,0.0,0.0,65,-99.99,,,-99.99,,2013-07-15 15:53:00,
2013-07-15 11:24:00,90.0,73.0,-100.00,East,100,0.0,0.0,59,-99.99,,,-99.99,,2013-07-15 16:24:00,
2013-07-15 11:45:00,90.0,72.0,-100.00,East,85,0.0,0.0,57,-99.99,,,-99.99,,2013-07-15 16:45:00,
2013-07-15 11:53:00,90.0,72.0,-100.00,East,85,0.0,0.0,57,-99.99,,,-99.99,,2013-07-15 16:53:00,
2013-07-15 12:13:00,88.0,73.0,-100.00,NNW,330,0.0,0.0,61,-99.99,,,-99.99,,2013-07-15 17:13:00,
2013-07-15 12:23:00,88.0,73.0,-100.00,NNW,330,0.0,0.0,61,-99.99,,,-99.99,,2013-07-15 17:23:00,
2013-07-15 12:48:00,90.0,71.0,-100.00,East,95,0.0,0.0,55,-99.99,,,-99.99,,2013-07-15 17:48:00,
2013-07-15 13:00:00,90.0,71.0,-100.00,East,95,0.0,0.0,55,-99.99,,,-99.99,,2013-07-15 18:00:00,
2013-07-15 13:45:00,92.0,72.0,-100.00,ESE,105,0.0,0.0,51,-99.99,,,-99.99,,2013-07-15 18:45:00,
2013-07-15 13:59:00,92.0,72.0,-100.00,ESE,105,0.0,0.0,51,-99.99,,,-99.99,,2013-07-15 18:59:00,
2013-07-15 14:11:00,92.0,70.0,-100.00,SSE,165,0.0,0.0,49,-99.99,,,-99.99,,2013-07-15 19:11:00,
2013-07-15 14:24:00,92.0,70.0,-100.00,SSE,165,0.0,0.0,49,-99.99,,,-99.99,,2013-07-15 19:24:00,
2013-07-15 14:36:00,91.0,72.0,-100.00,WSW,250,0.0,0.0,54,-99.99,,,-99.99,,2013-07-15 19:36:00,
2013-07-15 14:47:00,89.0,73.0,-100.00,ESE,115,0.0,0.0,60,-99.99,,,-99.99,,2013-07-15 19:47:00,
2013-07-15 14:56:00,89.0,73.0,-100.00,ESE,115,0.0,0.0,60,-99.99,,,-99.99,,2013-07-15 19:56:00,
2013-07-15 15:28:00,92.0,73.0,-100.00,WSW,245,0.0,0.0,55,-99.99,,,-99.99,,2013-07-15 20:28:00,
2013-07-15 15:43:00,86.0,74.0,-100.00,WSW,245,0.0,0.0,66,-99.99,,,-99.99,,2013-07-15 20:43:00,
2013-07-15 16:23:00,87.0,76.0,-100.00,SW,215,0.0,0.0,71,-99.99,,,-99.99,,2013-07-15 21:23:00,
2013-07-15 17:01:00,90.0,75.0,-100.00,SE,140,0.0,0.0,60,-99.99,,,-99.99,,2013-07-15 22:01:00,
2013-07-15 17:22:00,90.0,74.0,-100.00,ENE,60,0.0,0.0,60,-99.99,,,-99.99,,2013-07-15 22:22:00,
2013-07-15 17:43:00,88.0,75.0,-100.00,South,185,0.0,0.0,65,-99.99,,,-99.99,,2013-07-15 22:43:00,
2013-07-15 17:54:00,88.0,75.0,-100.00,South,185,0.0,0.0,65,-99.99,,,-99.99,,2013-07-15 22:54:00,
2013-07-15 18:28:00,90.0,74.0,-100.00,ESE,105,0.0,0.0,61,-99.99,,,-99.99,,2013-07-15 23:28:00,
2013-07-15 18:54:00,88.0,75.0,-100.00,South,175,0.0,0.0,66,-99.99,,,-99.99,,2013-07-15 23:54:00,
2013-07-15 19:15:00,86.0,76.0,-100.00,SSE,165,0.0,0.0,74,-99.99,,,-99.99,,2013-07-16 00:15:00,
2013-07-15 19:33:00,86.0,76.0,-100.00,SSE,165,0.0,0.0,74,-99.99,,,-99.99,,2013-07-16 00:33:00,
2013-07-15 19:53:00,85.0,77.0,-100.00,SE,140,0.0,0.0,75,-99.99,,,-99.99,,2013-07-16 00:53:00,
2013-07-15 20:26:00,85.0,76.0,-100.00,SSE,155,0.0,0.0,76,-99.99,,,-99.99,,2013-07-16 01:26:00,
2013-07-15 20:48:00,84.0,77.0,-100.00,East,80,0.0,0.0,80,-99.99,,,-99.99,,2013-07-16 01:48:00,
2013-07-15 21:02:00,84.0,77.0,-100.00,East,80,0.0,0.0,80,-99.99,,,-99.99,,2013-07-16 02:02:00,
2013-07-15 21:11:00,81.0,78.0,-100.00,ESE,105,0.0,0.0,90,-99.99,,,-99.99,,2013-07-16 02:11:00,
2013-07-15 21:28:00,81.0,78.0,-100.00,ESE,105,0.0,0.0,90,-99.99,,,-99.99,,2013-07-16 02:28:00,
2013-07-15 21:54:00,80.0,78.0,-100.00,ESE,110,0.0,0.0,96,-99.99,,,-99.99,,2013-07-16 02:54:00,
2013-07-15 22:28:00,78.0,78.0,-100.00,South,190,0.0,0.0,98,-99.99,,,-99.99,,2013-07-16 03:28:00,
2013-07-15 22:58:00,78.0,78.0,-100.00,East,100,0.0,0.0,99,-99.99,,,-99.99,,2013-07-16 03:58:00,
2013-07-15 23:01:00,78.0,78.0,-100.00,East,100,0.0,0.0,99,-99.99,,,-99.99,,2013-07-16 04:01:00,
2013-07-15 23:12:00,78.0,78.0,-100.00,East,100,0.0,0.0,99,-99.99,,,-99.99,,2013-07-16 04:12:00,